Home > Products > Valid Products > TAF

000
FTUS44 KLUB 012320
TAFCDS
TAF
KCDS 012320Z 0200/0224 17009KT P6SM SKC=



000
FTUS44 KLUB 012320
TAFLBB
TAF
KLBB 012320Z 0200/0224 16011KT P6SM SKC=



000
FTUS44 KLUB 011801 AAA
TAFLBB
TAF AMD
KLBB 011801Z 0118/0218 18013G20KT P6SM SKC
     FM012000 17008KT P6SM SKC=



000
FTUS44 KLUB 011801 AAA
TAFLBB
TAF AMD
KLBB 011801Z 0118/0218 18013G20KT P6SM SKC
     FM012000 17008KT P6SM SKC=



000
FTUS44 KLUB 011758 AAA
TAFCDS
TAF AMD
KCDS 011758Z 0118/0218 19013G20KT P6SM SKC
     FM012100 17009KT P6SM SKC=



000
FTUS44 KLUB 011758 AAA
TAFCDS
TAF AMD
KCDS 011758Z 0118/0218 19013G20KT P6SM SKC
     FM012100 17009KT P6SM SKC=



000
FTUS44 KLUB 011720
TAFLBB
TAF
KLBB 011720Z 0118/0218 17008KT P6SM SKC=



000
FTUS44 KLUB 011720
TAFCDS
TAF
KCDS 011720Z 0118/0218 17009KT P6SM SKC=



000
FTUS44 KLUB 011720
TAFLBB
TAF
KLBB 011720Z 0118/0218 17008KT P6SM SKC=



000
FTUS44 KLUB 011720
TAFCDS
TAF
KCDS 011720Z 0118/0218 17009KT P6SM SKC=



000
FTUS44 KLUB 011120
TAFCDS
TAF
KCDS 011120Z 0112/0212 17011KT P6SM FEW250=



000
FTUS44 KLUB 011120
TAFLBB
TAF
KLBB 011120Z 0112/0212 18006KT P6SM SKC
     FM011400 18014KT P6SM SKC
     FM020100 16008KT P6SM SKC=



000
FTUS44 KLUB 011120
TAFCDS
TAF
KCDS 011120Z 0112/0212 17011KT P6SM FEW250=



000
FTUS44 KLUB 011120
TAFLBB
TAF
KLBB 011120Z 0112/0212 18006KT P6SM SKC
     FM011400 18014KT P6SM SKC
     FM020100 16008KT P6SM SKC=



000
FTUS44 KLUB 010520
TAFCDS
TAF
KCDS 010520Z 0106/0206 16008KT P6SM SKC
     FM011500 17009G15KT P6SM SKC=



000
FTUS44 KLUB 010520
TAFCDS
TAF
KCDS 010520Z 0106/0206 16008KT P6SM SKC
     FM011500 17009G15KT P6SM SKC=



000
FTUS44 KLUB 010520
TAFLBB
TAF
KLBB 010520Z 0106/0206 17008KT P6SM SKC
     FM011400 18011G15KT P6SM SKC=



000
FTUS44 KLUB 010520
TAFLBB
TAF
KLBB 010520Z 0106/0206 17008KT P6SM SKC
     FM011400 18011G15KT P6SM SKC=



000
FTUS44 KLUB 312323
TAFCDS
TAF
KCDS 312323Z 0100/0124 18011KT P6SM SKC=



000
FTUS44 KLUB 312323
TAFLBB
TAF
KLBB 312323Z 0100/0124 17011G15KT P6SM SKC=



000
FTUS44 KLUB 311720
TAFCDS
TAF
KCDS 311720Z 3118/0118 18010KT P6SM SKC
     FM010100 18010KT P6SM SKC=



000
FTUS44 KLUB 311720
TAFCDS
TAF
KCDS 311720Z 3118/0118 18010KT P6SM SKC
     FM010100 18010KT P6SM SKC=



000
FTUS44 KLUB 311720
TAFLBB
TAF
KLBB 311720Z 3118/0118 19013KT P6SM SKC
     FM010300 17008KT P6SM SKC=



000
FTUS44 KLUB 311720
TAFLBB
TAF
KLBB 311720Z 3118/0118 19013KT P6SM SKC
     FM010300 17008KT P6SM SKC=



000
FTUS44 KLUB 311130
TAFLBB
TAF
KLBB 311130Z 3112/0112 23006KT P6SM SKC
     FM311800 18013KT P6SM SKC=



000
FTUS44 KLUB 311130
TAFCDS
TAF
KCDS 311130Z 3112/0112 21006KT P6SM SKC
     FM311800 18012KT P6SM SKC=



000
FTUS44 KLUB 310520
TAFLBB
TAF
KLBB 310520Z 3106/0106 17008KT P6SM SKC=



000
FTUS44 KLUB 310520
TAFCDS
TAF
KCDS 310520Z 3106/0106 18008KT P6SM SKC=



000
FTUS44 KLUB 310520
TAFLBB
TAF
KLBB 310520Z 3106/0106 17008KT P6SM SKC=



000
FTUS44 KLUB 310520
TAFCDS
TAF
KCDS 310520Z 3106/0106 18008KT P6SM SKC=



000
FTUS44 KLUB 302322
TAFLBB
TAF
KLBB 302322Z 3100/3124 18008KT P6SM SKC=



000
FTUS44 KLUB 302322
TAFCDS
TAF
KCDS 302322Z 3100/3124 18008KT P6SM SKC=



000
FTUS44 KLUB 302322
TAFLBB
TAF
KLBB 302322Z 3100/3124 18008KT P6SM SKC=



000
FTUS44 KLUB 302322
TAFCDS
TAF
KCDS 302322Z 3100/3124 18008KT P6SM SKC=



000
FTUS44 KLUB 301721
TAFCDS
TAF
KCDS 301721Z 3018/3118 18006KT P6SM FEW250=



000
FTUS44 KLUB 301721
TAFCDS
TAF
KCDS 301721Z 3018/3118 18006KT P6SM FEW250=



000
FTUS44 KLUB 301721
TAFLBB
TAF
KLBB 301721Z 3018/3118 19006KT P6SM FEW250=



000
FTUS44 KLUB 301120
TAFCDS
TAF
KCDS 301120Z 3012/3112 VRB06KT P6SM FEW300
     FM310000 17006KT P6SM SKC=



000
FTUS44 KLUB 301120
TAFLBB
TAF
KLBB 301120Z 3012/3112 29006KT P6SM FEW300
     FM302100 19008KT P6SM SKC=



000
FTUS44 KLUB 301120
TAFLBB
TAF
KLBB 301120Z 3012/3112 29006KT P6SM FEW300
     FM302100 19008KT P6SM SKC=



000
FTUS44 KLUB 301120
TAFCDS
TAF
KCDS 301120Z 3012/3112 VRB06KT P6SM FEW300
     FM310000 17006KT P6SM SKC=



000
FTUS44 KLUB 300520
TAFLBB
TAF
KLBB 300520Z 3006/3106 21006KT P6SM FEW050=



000
FTUS44 KLUB 300520
TAFCDS
TAF
KCDS 300520Z 3006/3106 20008KT P6SM FEW050=



000
FTUS44 KLUB 300520
TAFLBB
TAF
KLBB 300520Z 3006/3106 21006KT P6SM FEW050=



000
FTUS44 KLUB 300520
TAFCDS
TAF
KCDS 300520Z 3006/3106 20008KT P6SM FEW050=



    US Dept of Commerce
    National Oceanic and Atmospheric Administration
    National Weather Service
    1325 East West Highway
    Silver Spring, MD 20910
    Page Author: NWS Internet Services Team
Disclaimer
Information Quality
Credits
Glossary
Privacy Policy
Freedom of Information Act (FOIA)
About Us
Career Opportunities